createdAt,value
2023-03-02T00:00:42.153Z,13.10
2023-03-02T00:03:09.848Z,13.82
2023-03-02T00:05:36.864Z,12.73
2023-03-02T00:08:04.207Z,14.93
2023-03-02T00:10:30.717Z,12.98
2023-03-02T00:12:58.083Z,14.13
2023-03-02T00:15:24.485Z,15.05
2023-03-02T00:17:50.907Z,13.85
2023-03-02T00:20:17.331Z,11.98
2023-03-02T00:22:45.788Z,15.68
2023-03-02T00:25:16.200Z,12.32
2023-03-02T00:27:43.003Z,15.13
2023-03-02T00:30:10.907Z,14.68
2023-03-02T00:32:37.469Z,13.40
2023-03-02T00:35:04.731Z,17.15
2023-03-02T00:37:31.145Z,13.52
2023-03-02T00:39:57.560Z,17.30
2023-03-02T00:42:23.959Z,15.80
2023-03-02T00:44:52.211Z,14.73
2023-03-02T00:47:18.658Z,16.23
2023-03-02T00:49:48.980Z,15.85
2023-03-02T00:52:16.953Z,15.25
2023-03-02T00:54:43.379Z,13.38
2023-03-02T00:57:09.764Z,14.20
2023-03-02T00:59:37.942Z,14.25
2023-03-02T01:02:04.690Z,12.60
2023-03-02T01:04:34.114Z,16.33
2023-03-02T01:07:03.301Z,20.50
2023-03-02T01:09:29.974Z,14.88
2023-03-02T01:11:56.483Z,15.27
2023-03-02T01:14:23.036Z,15.15
2023-03-02T01:16:49.448Z,15.15
2023-03-02T01:19:16.146Z,15.32
2023-03-02T01:21:42.976Z,15.48
2023-03-02T01:24:10.511Z,16.52
2023-03-02T01:26:37.413Z,14.80
2023-03-02T01:29:04.548Z,16.90
2023-03-02T01:31:31.233Z,18.25
2023-03-02T01:33:57.674Z,16.35
2023-03-02T01:36:24.194Z,15.00
2023-03-02T01:38:51.494Z,15.50
2023-03-02T01:41:18.140Z,17.27
2023-03-02T01:43:44.546Z,16.75
2023-03-02T01:46:16.657Z,14.27
2023-03-02T01:48:47.320Z,14.65
2023-03-02T01:51:19.627Z,15.75
2023-03-02T01:53:49.482Z,15.13
2023-03-02T01:56:19.283Z,14.20
2023-03-02T01:58:47.232Z,17.38
2023-03-02T02:01:17.354Z,16.77
2023-03-02T02:03:45.840Z,15.05
2023-03-02T02:06:18.087Z,14.93
2023-03-02T02:08:46.157Z,14.10
2023-03-02T02:11:13.373Z,13.90
2023-03-02T02:13:39.863Z,13.77
2023-03-02T02:16:07.171Z,16.23
2023-03-02T02:18:36.010Z,13.73
2023-03-02T02:21:02.414Z,16.83
2023-03-02T02:23:35.303Z,15.90
2023-03-02T02:26:10.524Z,14.43
2023-03-02T02:28:59.644Z,13.82
2023-03-02T02:31:34.863Z,16.00
2023-03-02T02:34:11.486Z,14.63
2023-03-02T02:36:41.552Z,18.00
2023-03-02T02:39:14.721Z,14.73
2023-03-02T02:41:42.324Z,17.00
2023-03-02T02:44:14.037Z,13.95
2023-03-02T02:46:40.592Z,15.80
2023-03-02T02:49:14.783Z,17.38
2023-03-02T02:51:41.256Z,15.48
2023-03-02T02:54:11.326Z,14.40
2023-03-02T02:56:39.646Z,16.27
2023-03-02T02:59:09.487Z,15.73
2023-03-02T03:01:36.011Z,17.27
2023-03-02T03:04:05.153Z,12.38
2023-03-02T03:06:38.335Z,14.15
2023-03-02T03:09:10.030Z,14.45
2023-03-02T03:11:39.059Z,12.00
2023-03-02T03:14:11.376Z,12.30
2023-03-02T03:16:40.843Z,12.93
2023-03-02T03:19:20.541Z,13.00
2023-03-02T03:21:49.998Z,15.38
2023-03-02T03:24:17.060Z,14.77
2023-03-02T03:26:43.983Z,12.27
2023-03-02T03:29:11.882Z,14.52
2023-03-02T03:31:38.577Z,15.88
2023-03-02T03:34:05.381Z,11.55
2023-03-02T03:36:32.472Z,14.88
2023-03-02T03:38:59.348Z,16.77
2023-03-02T03:41:25.915Z,13.00
2023-03-02T03:43:52.668Z,14.75
2023-03-02T03:46:19.282Z,16.15
2023-03-02T03:48:45.801Z,13.43
2023-03-02T03:51:12.420Z,16.60
2023-03-02T03:53:38.896Z,13.85
2023-03-02T03:56:05.509Z,12.95
2023-03-02T03:58:32.039Z,14.15
2023-03-02T04:00:59.001Z,13.07
2023-03-02T04:03:25.952Z,14.32
2023-03-02T04:05:52.566Z,13.18
2023-03-02T04:08:19.268Z,12.27
2023-03-02T04:10:46.076Z,12.45
2023-03-02T04:13:13.077Z,13.02
2023-03-02T04:15:39.905Z,12.48
2023-03-02T04:18:06.376Z,13.50
2023-03-02T04:20:32.848Z,12.63
2023-03-02T04:22:59.612Z,12.57
2023-03-02T04:25:28.411Z,14.95
2023-03-02T04:27:55.166Z,17.08
2023-03-02T04:30:24.904Z,17.63
2023-03-02T04:32:51.586Z,17.40
2023-03-02T04:35:18.566Z,14.20
2023-03-02T04:37:47.003Z,14.85
2023-03-02T04:40:14.605Z,14.95
2023-03-02T04:42:41.709Z,13.68
2023-03-02T04:45:08.538Z,15.60
2023-03-02T04:47:34.968Z,17.77
2023-03-02T04:50:01.407Z,15.60
2023-03-02T04:52:27.845Z,15.88
2023-03-02T04:54:54.241Z,17.58
2023-03-02T04:57:20.603Z,16.23
2023-03-02T04:59:47.012Z,14.75
2023-03-02T05:02:13.578Z,14.90
2023-03-02T05:04:41.028Z,17.75
2023-03-02T05:07:07.609Z,18.98
2023-03-02T05:09:34.070Z,14.95
2023-03-02T05:12:01.442Z,18.77
2023-03-02T05:14:28.116Z,16.48
2023-03-02T05:16:54.537Z,18.02
2023-03-02T05:19:20.986Z,16.60
2023-03-02T05:21:47.550Z,17.73
2023-03-02T05:24:14.139Z,16.90
2023-03-02T05:26:41.117Z,17.70
2023-03-02T05:29:07.627Z,16.85
2023-03-02T05:31:37.116Z,23.35
2023-03-02T05:34:05.836Z,20.05
2023-03-02T05:36:32.588Z,18.45
2023-03-02T05:38:59.160Z,22.52
2023-03-02T05:41:25.644Z,20.95
2023-03-02T05:43:52.128Z,18.83
2023-03-02T05:46:20.832Z,20.83
2023-03-02T05:48:48.472Z,20.77
2023-03-02T05:51:15.656Z,20.88
2023-03-02T05:53:42.043Z,19.17
2023-03-02T05:56:08.706Z,19.85
2023-03-02T05:58:35.214Z,20.42
2023-03-02T06:01:01.663Z,21.13
2023-03-02T06:03:28.211Z,21.98
2023-03-02T06:05:54.727Z,22.77
2023-03-02T06:08:21.882Z,22.88
2023-03-02T06:10:51.138Z,21.35
2023-03-02T06:13:17.557Z,25.65
2023-03-02T06:15:44.036Z,25.85
2023-03-02T06:18:12.474Z,29.23
2023-03-02T06:20:39.611Z,23.20
2023-03-02T06:23:06.033Z,22.83
2023-03-02T06:25:32.617Z,24.55
2023-03-02T06:27:59.053Z,24.33
2023-03-02T06:30:25.932Z,23.58
2023-03-02T06:32:52.470Z,25.40
2023-03-02T06:35:19.349Z,23.45
2023-03-02T06:37:45.824Z,25.05
2023-03-02T06:40:13.682Z,29.95
2023-03-02T06:42:41.325Z,29.83
2023-03-02T06:45:08.704Z,29.65
2023-03-02T06:47:35.282Z,35.58
2023-03-02T06:50:01.769Z,35.10
2023-03-02T06:52:28.237Z,38.40
2023-03-02T06:54:55.035Z,35.47
2023-03-02T06:57:21.448Z,41.08
2023-03-02T06:59:47.871Z,40.63
2023-03-02T07:02:14.400Z,43.97
2023-03-02T07:04:40.893Z,46.20
2023-03-02T07:07:07.329Z,43.70
2023-03-02T07:09:34.221Z,49.65
2023-03-02T07:12:00.608Z,49.78
2023-03-02T07:14:27.028Z,49.42
2023-03-02T07:16:53.519Z,54.85
2023-03-02T07:19:19.941Z,52.13
2023-03-02T07:21:46.390Z,52.50
2023-03-02T07:24:12.797Z,49.38
2023-03-02T07:26:39.182Z,50.28
2023-03-02T07:29:05.705Z,55.90
2023-03-02T07:31:32.477Z,56.50
2023-03-02T07:33:59.047Z,56.08
2023-03-02T07:36:26.366Z,52.85
2023-03-02T07:38:52.810Z,55.58
2023-03-02T07:41:19.309Z,52.97
2023-03-02T07:43:45.780Z,49.40
2023-03-02T07:46:12.195Z,52.38
2023-03-02T07:48:38.618Z,55.15
2023-03-02T07:51:06.055Z,54.38
2023-03-02T07:53:32.516Z,49.20
2023-03-02T07:56:00.824Z,50.35
2023-03-02T07:58:27.225Z,53.38
2023-03-02T08:00:53.734Z,51.55
2023-03-02T08:03:20.150Z,49.22
2023-03-02T08:05:46.619Z,51.58
2023-03-02T08:08:13.140Z,46.90
2023-03-02T08:10:39.577Z,48.30
2023-03-02T08:13:06.073Z,48.42
2023-03-02T08:15:32.453Z,49.17
2023-03-02T08:17:58.863Z,47.20
2023-03-02T08:20:25.318Z,48.35
2023-03-02T08:22:51.885Z,42.88
2023-03-02T08:25:18.876Z,48.05
2023-03-02T08:27:46.086Z,48.05
2023-03-02T08:30:13.430Z,49.75
2023-03-02T08:32:40.424Z,51.22
2023-03-02T08:35:07.384Z,53.75
2023-03-02T08:37:34.214Z,52.92
2023-03-02T08:40:00.619Z,53.63
2023-03-02T08:42:27.011Z,47.42
2023-03-02T08:44:53.407Z,42.90
2023-03-02T08:47:19.864Z,49.05
2023-03-02T08:49:47.991Z,50.55
2023-03-02T08:52:15.277Z,46.03
2023-03-02T08:54:42.048Z,49.70
2023-03-02T08:57:11.136Z,47.17
2023-03-02T08:59:37.572Z,44.72
2023-03-02T09:02:04.089Z,45.72
2023-03-02T09:04:30.561Z,44.97
2023-03-02T09:06:57.052Z,43.67
2023-03-02T09:09:23.506Z,48.67
2023-03-02T09:11:50.099Z,43.88
2023-03-02T09:14:16.572Z,44.13
2023-03-02T09:16:43.054Z,42.90
2023-03-02T09:19:10.277Z,40.55
2023-03-02T09:21:36.728Z,40.42
2023-03-02T09:24:03.145Z,44.33
2023-03-02T09:26:29.736Z,37.58
2023-03-02T09:28:56.602Z,35.00
2023-03-02T09:31:23.246Z,36.05
2023-03-02T09:33:49.704Z,33.40
2023-03-02T09:36:21.637Z,35.25
2023-03-02T09:38:49.800Z,26.80
2023-03-02T09:41:35.706Z,34.67
2023-03-02T09:44:54.419Z,31.27
2023-03-02T09:47:35.616Z,28.10
2023-03-02T09:50:29.254Z,28.65
2023-03-02T09:53:11.716Z,29.67
2023-03-02T09:55:38.613Z,26.60
2023-03-02T09:58:15.043Z,27.80
2023-03-02T10:00:43.926Z,24.42
2023-03-02T10:03:19.186Z,26.60
2023-03-02T10:05:48.224Z,26.83
2023-03-02T10:08:22.560Z,26.05
2023-03-02T10:11:33.706Z,26.60
2023-03-02T10:14:13.248Z,24.90
2023-03-02T10:16:48.379Z,24.17
2023-03-02T10:19:17.634Z,23.63
2023-03-02T10:21:47.381Z,26.90
2023-03-02T10:24:47.319Z,23.52
2023-03-02T10:27:26.180Z,24.73
2023-03-02T10:30:03.600Z,23.83
2023-03-02T10:32:33.198Z,24.90
2023-03-02T10:35:02.170Z,23.25
2023-03-02T10:37:30.436Z,22.88
2023-03-02T10:39:57.238Z,23.58
2023-03-02T10:42:33.824Z,23.67
2023-03-02T10:45:27.413Z,23.45
2023-03-02T10:48:01.244Z,25.27
2023-03-02T10:50:27.683Z,27.42
2023-03-02T10:53:00.207Z,24.83
2023-03-02T10:55:27.183Z,25.10
2023-03-02T10:58:06.716Z,25.98
2023-03-02T11:00:34.778Z,26.27
2023-03-02T11:03:17.794Z,25.13
2023-03-02T11:05:45.328Z,24.88
2023-03-02T11:08:17.996Z,23.88
2023-03-02T11:10:59.855Z,25.48
2023-03-02T11:13:33.906Z,23.77
2023-03-02T11:16:04.922Z,25.45
2023-03-02T11:18:35.285Z,27.85
2023-03-02T11:21:08.811Z,23.80
2023-03-02T11:23:51.844Z,22.60
2023-03-02T11:26:23.425Z,23.70
2023-03-02T11:29:26.198Z,24.40
2023-03-02T11:32:11.323Z,24.30
2023-03-02T11:34:52.436Z,24.27
2023-03-02T11:37:45.460Z,22.92
2023-03-02T11:40:31.927Z,25.20
2023-03-02T11:42:59.754Z,26.23
2023-03-02T11:45:29.039Z,22.77
2023-03-02T11:48:04.332Z,22.85
2023-03-02T11:50:32.793Z,23.83
2023-03-02T11:53:01.625Z,22.42
2023-03-02T11:55:29.454Z,26.05
2023-03-02T11:58:02.752Z,25.55
2023-03-02T12:00:33.747Z,25.00
2023-03-02T12:03:00.944Z,25.80
2023-03-02T12:05:29.932Z,24.45
2023-03-02T12:08:01.536Z,22.92
2023-03-02T12:10:36.432Z,24.13
2023-03-02T12:13:21.673Z,23.25
2023-03-02T12:15:52.361Z,22.67
2023-03-02T12:18:21.856Z,22.25
2023-03-02T12:21:02.403Z,24.70
2023-03-02T12:23:30.151Z,23.17
2023-03-02T12:26:08.900Z,22.85
2023-03-02T12:28:39.143Z,22.88
2023-03-02T12:31:14.731Z,21.48
2023-03-02T12:33:45.168Z,22.38
2023-03-02T12:36:16.164Z,23.77
2023-03-02T12:38:47.870Z,24.15
2023-03-02T12:41:41.816Z,24.70
2023-03-02T12:44:38.623Z,25.98
2023-03-02T12:47:10.986Z,24.15
2023-03-02T12:52:32.177Z,25.75
2023-03-02T12:57:25.706Z,23.88
2023-03-02T12:59:54.814Z,23.77
2023-03-02T13:02:32.675Z,23.60
2023-03-02T13:05:01.776Z,25.40
2023-03-02T13:07:35.724Z,25.05
2023-03-02T13:10:07.079Z,23.85
2023-03-02T13:12:34.520Z,26.15
2023-03-02T13:15:01.203Z,26.00
2023-03-02T13:17:32.240Z,29.40
2023-03-02T13:20:00.237Z,26.85
2023-03-02T13:22:28.238Z,24.60
2023-03-02T13:25:22.720Z,25.58
2023-03-02T13:28:07.454Z,27.85
2023-03-02T13:30:37.234Z,26.48
2023-03-02T13:33:18.152Z,27.58
2023-03-02T13:35:46.955Z,25.05
2023-03-02T13:38:19.017Z,29.05
2023-03-02T13:40:48.312Z,26.27
2023-03-02T13:43:35.493Z,24.77
2023-03-02T13:46:04.856Z,26.80
2023-03-02T13:48:32.177Z,29.13
2023-03-02T13:51:18.932Z,30.80
2023-03-02T13:53:51.980Z,25.58
2023-03-02T13:56:18.945Z,25.58
2023-03-02T13:58:45.517Z,26.33
2023-03-02T14:01:12.970Z,25.85
2023-03-02T14:03:39.433Z,27.73
2023-03-02T14:06:06.275Z,28.17
2023-03-02T14:08:32.731Z,27.13
2023-03-02T14:11:00.962Z,26.13
2023-03-02T14:13:35.219Z,25.52
2023-03-02T14:16:01.913Z,26.48
2023-03-02T14:18:50.350Z,27.45
2023-03-02T14:21:18.953Z,29.08
2023-03-02T14:23:46.132Z,28.88
2023-03-02T14:26:25.036Z,26.92
2023-03-02T14:29:04.591Z,27.08
2023-03-02T14:31:32.224Z,28.88
2023-03-02T14:33:58.900Z,30.58
2023-03-02T14:36:32.432Z,29.05
2023-03-02T14:41:27.635Z,30.45
2023-03-02T14:43:54.924Z,30.77
2023-03-02T14:46:21.491Z,28.88
2023-03-02T14:48:48.092Z,29.45
2023-03-02T14:51:27.050Z,27.98
2023-03-02T14:53:55.504Z,29.65
2023-03-02T14:56:25.324Z,29.33
2023-03-02T14:58:52.609Z,29.05
2023-03-02T15:01:19.924Z,35.35
2023-03-02T15:03:46.452Z,31.48
2023-03-02T15:06:31.395Z,31.73
2023-03-02T15:08:59.826Z,35.65
2023-03-02T15:11:27.215Z,32.88
2023-03-02T15:13:54.205Z,32.35
2023-03-02T15:16:20.773Z,32.65
2023-03-02T15:18:51.878Z,34.80
2023-03-02T15:21:21.238Z,34.58
2023-03-02T15:23:48.111Z,35.83
2023-03-02T15:26:15.112Z,34.50
2023-03-02T15:28:41.726Z,35.78
2023-03-02T15:31:09.530Z,35.47
2023-03-02T15:33:36.498Z,33.45
2023-03-02T15:36:06.285Z,33.72
2023-03-02T15:38:33.471Z,31.23
2023-03-02T15:41:07.501Z,31.30
2023-03-02T15:43:33.893Z,37.42
2023-03-02T15:46:02.109Z,33.05
2023-03-02T15:48:29.442Z,35.78
2023-03-02T15:50:57.616Z,34.20
2023-03-02T15:53:24.020Z,35.78
2023-03-02T15:55:50.385Z,36.88
2023-03-02T15:58:17.740Z,38.65
2023-03-02T16:00:44.977Z,40.33
2023-03-02T16:03:12.891Z,37.08
2023-03-02T16:05:39.299Z,37.85
2023-03-02T16:08:05.863Z,39.25
2023-03-02T16:10:32.230Z,35.50
2023-03-02T16:13:03.731Z,39.97
2023-03-02T16:15:30.364Z,38.33
2023-03-02T16:17:56.754Z,39.53
2023-03-02T16:20:23.402Z,37.78
2023-03-02T16:22:49.876Z,36.35
2023-03-02T16:25:16.314Z,35.85
2023-03-02T16:27:47.320Z,38.15
2023-03-02T16:30:15.363Z,39.88
2023-03-02T16:32:41.772Z,36.78
2023-03-02T16:35:09.038Z,38.60
2023-03-02T16:37:35.521Z,38.80
2023-03-02T16:40:01.962Z,40.58
2023-03-02T16:42:30.234Z,44.15
2023-03-02T16:44:56.696Z,45.78
2023-03-02T16:47:23.090Z,47.47
2023-03-02T16:49:49.473Z,50.63
2023-03-02T16:52:17.675Z,49.15
2023-03-02T16:54:44.890Z,50.97
2023-03-02T16:57:11.296Z,43.78
2023-03-02T16:59:37.687Z,42.75
2023-03-02T17:02:04.077Z,41.92
2023-03-02T17:04:31.878Z,40.22
2023-03-02T17:07:00.721Z,43.10
2023-03-02T17:09:28.036Z,41.97
2023-03-02T17:11:54.530Z,58.30
2023-03-02T17:14:20.896Z,52.70
2023-03-02T17:16:47.296Z,65.18
2023-03-02T17:19:13.692Z,76.90
2023-03-02T17:21:40.111Z,80.63
2023-03-02T17:24:06.768Z,84.60
2023-03-02T17:26:33.208Z,98.20
2023-03-02T17:28:59.616Z,93.70
2023-03-02T17:31:26.151Z,96.97
2023-03-02T17:33:53.053Z,98.63
2023-03-02T17:36:19.464Z,108.57
2023-03-02T17:38:45.929Z,100.05
2023-03-02T17:41:12.377Z,105.93
2023-03-02T17:43:40.424Z,103.55
2023-03-02T17:46:20.131Z,98.45
2023-03-02T17:48:48.006Z,98.95
2023-03-02T17:51:14.977Z,103.30
2023-03-02T17:53:43.105Z,104.53
2023-03-02T17:56:09.604Z,99.55
2023-03-02T17:58:44.603Z,102.50
2023-03-02T18:01:12.029Z,98.78
2023-03-02T18:03:38.702Z,107.65
2023-03-02T18:06:05.582Z,104.03
2023-03-02T18:08:33.182Z,92.50
2023-03-02T18:11:00.343Z,95.50
2023-03-02T18:13:29.132Z,95.25
2023-03-02T18:15:57.341Z,96.60
2023-03-02T18:18:24.064Z,100.70
2023-03-02T18:20:53.251Z,99.05
2023-03-02T18:23:21.365Z,94.72
2023-03-02T18:25:48.572Z,88.82
2023-03-02T18:28:15.168Z,74.65
2023-03-02T18:30:42.311Z,66.53
2023-03-02T18:33:09.171Z,65.72
2023-03-02T18:35:35.626Z,64.38
2023-03-02T18:38:02.315Z,57.47
2023-03-02T18:40:28.752Z,57.72
2023-03-02T18:42:55.102Z,56.30
2023-03-02T18:45:31.888Z,59.35
2023-03-02T18:47:59.396Z,53.60
2023-03-02T18:50:26.951Z,59.72
2023-03-02T18:52:53.385Z,54.80
2023-03-02T18:55:20.796Z,59.50
2023-03-02T18:57:47.226Z,61.55
2023-03-02T19:00:19.508Z,69.75
2023-03-02T19:02:45.893Z,72.85
2023-03-02T19:05:12.355Z,70.47
2023-03-02T19:07:38.786Z,65.63
2023-03-02T19:10:05.594Z,63.88
2023-03-02T19:12:31.983Z,66.22
2023-03-02T19:14:59.188Z,57.33
2023-03-02T19:17:25.595Z,54.00
2023-03-02T19:19:52.051Z,53.38
2023-03-02T19:22:18.462Z,55.58
2023-03-02T19:24:45.945Z,55.72
2023-03-02T19:27:12.982Z,55.95
2023-03-02T19:29:40.450Z,55.08
2023-03-02T19:32:07.962Z,54.17
2023-03-02T19:34:34.821Z,57.15
2023-03-02T19:37:02.630Z,58.58
2023-03-02T19:39:29.086Z,61.28
2023-03-02T19:41:55.766Z,59.60
2023-03-02T19:44:22.158Z,66.53
2023-03-02T19:46:48.591Z,71.57
2023-03-02T19:49:15.806Z,68.45
2023-03-02T19:51:42.175Z,71.18
2023-03-02T19:54:08.552Z,73.13
2023-03-02T19:56:39.470Z,86.13
2023-03-02T19:59:06.915Z,79.15
2023-03-02T20:01:33.323Z,76.22
2023-03-02T20:04:00.081Z,72.43
2023-03-02T20:06:32.249Z,61.55
2023-03-02T20:09:01.391Z,64.82
2023-03-02T20:11:30.554Z,58.10
2023-03-02T20:14:01.978Z,53.95
2023-03-02T20:16:29.906Z,50.90
2023-03-02T20:18:57.894Z,48.05
2023-03-02T20:21:26.549Z,52.75
2023-03-02T20:23:53.419Z,51.38
2023-03-02T20:26:19.968Z,49.33
2023-03-02T20:28:47.131Z,49.97
2023-03-02T20:31:14.566Z,52.05
2023-03-02T20:33:46.276Z,54.63
2023-03-02T20:36:15.531Z,51.55
2023-03-02T20:38:46.164Z,53.47
2023-03-02T20:41:13.931Z,56.40
2023-03-02T20:43:41.182Z,63.65
2023-03-02T20:46:09.297Z,60.67
2023-03-02T20:48:36.181Z,65.78
2023-03-02T20:51:03.075Z,67.78
2023-03-02T20:53:29.652Z,70.18
2023-03-02T20:55:56.549Z,75.95
2023-03-02T20:58:22.975Z,76.60
2023-03-02T21:00:49.344Z,71.53
2023-03-02T21:03:15.741Z,69.65
2023-03-02T21:05:42.318Z,64.72
2023-03-02T21:08:10.329Z,58.83
2023-03-02T21:10:37.885Z,51.25
2023-03-02T21:13:05.264Z,45.83
2023-03-02T21:15:32.069Z,41.97
2023-03-02T21:17:59.183Z,45.40
2023-03-02T21:20:28.564Z,36.75
2023-03-02T21:22:55.527Z,37.95
2023-03-02T21:25:22.120Z,40.05
2023-03-02T21:27:48.586Z,36.83
2023-03-02T21:30:19.671Z,37.47
2023-03-02T21:32:47.152Z,37.30
2023-03-02T21:35:15.224Z,37.72
2023-03-02T21:37:42.567Z,35.38
2023-03-02T21:40:13.588Z,35.40
2023-03-02T21:42:39.949Z,34.15
2023-03-02T21:45:08.895Z,30.77
2023-03-02T21:47:36.053Z,34.53
2023-03-02T21:50:02.566Z,34.25
2023-03-02T21:52:28.991Z,34.08
2023-03-02T21:54:55.382Z,32.63
2023-03-02T21:57:21.790Z,32.30
2023-03-02T21:59:48.181Z,31.77
2023-03-02T22:02:14.564Z,32.60
2023-03-02T22:04:41.582Z,32.63
2023-03-02T22:07:08.281Z,34.58
2023-03-02T22:09:34.763Z,42.60
2023-03-02T22:12:01.179Z,47.35
2023-03-02T22:14:27.562Z,56.15
2023-03-02T22:16:54.019Z,56.47
2023-03-02T22:19:26.860Z,55.22
2023-03-02T22:21:57.361Z,62.92
2023-03-02T22:24:26.132Z,66.80
2023-03-02T22:26:58.511Z,72.30
2023-03-02T22:29:45.084Z,63.55
2023-03-02T22:32:21.326Z,64.13
2023-03-02T22:34:52.778Z,74.47
2023-03-02T22:37:21.634Z,84.18
2023-03-02T22:39:49.641Z,86.90
2023-03-02T22:42:27.039Z,92.03
2023-03-02T22:45:14.661Z,92.57
2023-03-02T22:47:42.184Z,90.78
2023-03-02T22:50:29.288Z,83.28
2023-03-02T22:52:57.051Z,78.43
2023-03-02T22:55:40.840Z,75.80
2023-03-02T22:58:32.233Z,79.63
2023-03-02T23:00:59.943Z,69.78
2023-03-02T23:03:38.921Z,77.22
2023-03-02T23:06:29.963Z,74.20
2023-03-02T23:08:59.284Z,79.25
2023-03-02T23:11:26.739Z,79.03
2023-03-02T23:13:53.697Z,76.63
2023-03-02T23:16:25.671Z,82.07
2023-03-02T23:18:55.083Z,74.80
2023-03-02T23:21:28.580Z,73.35
2023-03-02T23:23:55.083Z,76.80
2023-03-02T23:26:21.498Z,79.97
2023-03-02T23:28:49.290Z,78.72
2023-03-02T23:31:18.368Z,75.45
2023-03-02T23:33:45.009Z,77.47
2023-03-02T23:36:11.446Z,80.38
2023-03-02T23:38:38.930Z,72.38
2023-03-02T23:41:07.345Z,73.03
2023-03-02T23:43:34.698Z,76.53
2023-03-02T23:46:01.455Z,75.63
2023-03-02T23:48:27.828Z,71.50
2023-03-02T23:50:54.220Z,63.20
2023-03-02T23:53:20.626Z,53.30
2023-03-02T23:55:49.166Z,47.58
2023-03-02T23:58:16.497Z,47.78
